createdAt,value
2023-04-03T00:01:22.197Z,102207.94
2023-04-03T00:03:49.238Z,102211.66
2023-04-03T00:06:16.335Z,102224.47
2023-04-03T00:08:43.550Z,102216.50
2023-04-03T00:11:11.436Z,102218.53
2023-04-03T00:13:39.964Z,102217.72
2023-04-03T00:16:09.178Z,102217.81
2023-04-03T00:18:38.359Z,102221.72
2023-04-03T00:21:06.348Z,102225.31
2023-04-03T00:23:34.596Z,102219.47
2023-04-03T00:26:01.676Z,102213.22
2023-04-03T00:28:28.808Z,102219.78
2023-04-03T00:30:55.918Z,102224.44
2023-04-03T00:33:23.115Z,102227.31
2023-04-03T00:35:50.887Z,102221.16
2023-04-03T00:38:18.728Z,102216.13
2023-04-03T00:40:48.928Z,102213.63
2023-04-03T00:43:23.999Z,102213.88
2023-04-03T00:45:54.386Z,102204.34
2023-04-03T00:48:28.100Z,102205.47
2023-04-03T00:50:55.148Z,102201.16
2023-04-03T00:54:02.783Z,102205.19
2023-04-03T00:56:31.905Z,102203.63
2023-04-03T00:59:10.221Z,102203.91
2023-04-03T01:01:39.031Z,102208.47
2023-04-03T01:04:07.599Z,102204.97
2023-04-03T01:06:38.541Z,102201.72
2023-04-03T01:09:06.682Z,102200.16
2023-04-03T01:11:34.163Z,102206.44
2023-04-03T01:14:01.288Z,102203.91
2023-04-03T01:16:29.529Z,102200.44
2023-04-03T01:18:56.752Z,102211.41
2023-04-03T01:21:48.215Z,102214.56
2023-04-03T01:24:37.969Z,102208.56
2023-04-03T01:27:08.374Z,102209.53
2023-04-03T01:29:35.624Z,102209.75
2023-04-03T01:32:04.365Z,102202.75
2023-04-03T01:34:32.283Z,102193.97
2023-04-03T01:36:59.685Z,102199.63
2023-04-03T01:39:26.778Z,102201.66
2023-04-03T01:41:53.944Z,102202.69
2023-04-03T01:44:21.844Z,102210.78
2023-04-03T01:46:48.823Z,102202.13
2023-04-03T01:49:15.782Z,102193.38
2023-04-03T01:51:42.670Z,102205.19
2023-04-03T01:54:09.652Z,102199.97
2023-04-03T01:56:36.721Z,102203.69
2023-04-03T01:59:03.668Z,102207.38
2023-04-03T02:01:30.630Z,102208.47
2023-04-03T02:03:57.931Z,102209.34
2023-04-03T02:06:24.952Z,102201.72
2023-04-03T02:08:52.068Z,102200.94
2023-04-03T02:11:18.959Z,102195.84
2023-04-03T02:13:45.973Z,102201.38
2023-04-03T02:16:14.299Z,102201.50
2023-04-03T02:18:41.289Z,102197.25
2023-04-03T02:21:08.370Z,102189.47
2023-04-03T02:23:37.297Z,102191.34
2023-04-03T02:26:12.356Z,102196.84
2023-04-03T02:28:39.983Z,102196.19
2023-04-03T02:31:11.771Z,102202.56
2023-04-03T02:33:39.465Z,102192.88
2023-04-03T02:36:08.415Z,102194.81
2023-04-03T02:38:36.515Z,102193.19
2023-04-03T02:41:05.844Z,102187.03
2023-04-03T02:43:33.263Z,102193.47
2023-04-03T02:46:00.756Z,102187.47
2023-04-03T02:48:28.182Z,102187.47
2023-04-03T02:50:55.214Z,102183.94
2023-04-03T02:53:22.520Z,102181.41
2023-04-03T02:55:49.820Z,102185.09
2023-04-03T02:58:17.156Z,102177.28
2023-04-03T03:00:44.490Z,102175.59
2023-04-03T03:03:11.574Z,102176.56
2023-04-03T03:05:38.476Z,102173.28
2023-04-03T03:08:05.726Z,102185.91
2023-04-03T03:10:32.622Z,102182.50
2023-04-03T03:12:59.491Z,102179.16
2023-04-03T03:15:26.418Z,102178.44
2023-04-03T03:17:53.314Z,102180.47
2023-04-03T03:20:20.490Z,102185.22
2023-04-03T03:22:47.462Z,102185.34
2023-04-03T03:25:14.505Z,102179.28
2023-04-03T03:27:41.845Z,102182.03
2023-04-03T03:30:09.351Z,102183.19
2023-04-03T03:32:36.499Z,102184.97
2023-04-03T03:35:04.130Z,102188.63
2023-04-03T03:37:30.983Z,102186.03
2023-04-03T03:39:58.219Z,102187.91
2023-04-03T03:42:25.137Z,102183.53
2023-04-03T03:44:53.026Z,102176.44
2023-04-03T03:47:20.047Z,102179.13
2023-04-03T03:49:47.010Z,102177.41
2023-04-03T03:52:14.256Z,102182.91
2023-04-03T03:54:41.178Z,102181.09
2023-04-03T03:57:08.129Z,102174.19
2023-04-03T03:59:35.101Z,102173.31
2023-04-03T04:02:02.308Z,102182.25
2023-04-03T04:04:29.287Z,102179.69
2023-04-03T04:06:56.373Z,102177.06
2023-04-03T04:09:23.272Z,102185.13
2023-04-03T04:11:50.397Z,102171.84
2023-04-03T04:14:17.429Z,102179.91
2023-04-03T04:16:44.578Z,102175.53
2023-04-03T04:19:11.602Z,102174.88
2023-04-03T04:21:38.711Z,102174.88
2023-04-03T04:24:06.545Z,102177.59
2023-04-03T04:26:33.424Z,102166.06
2023-04-03T04:29:00.445Z,102167.09
2023-04-03T04:31:28.190Z,102162.00
2023-04-03T04:33:55.256Z,102152.22
2023-04-03T04:36:22.524Z,102156.66
2023-04-03T04:38:49.585Z,102154.94
2023-04-03T04:41:17.249Z,102153.34
2023-04-03T04:43:44.433Z,102153.34
2023-04-03T04:46:15.172Z,102154.34
2023-04-03T04:48:42.159Z,102160.47
2023-04-03T04:51:09.522Z,102156.06
2023-04-03T04:53:36.648Z,102154.50
2023-04-03T04:56:03.812Z,102159.94
2023-04-03T04:58:30.751Z,102156.47
2023-04-03T05:01:10.213Z,102155.69
2023-04-03T05:03:37.708Z,102165.53
2023-04-03T05:06:05.983Z,102159.41
2023-04-03T05:08:33.302Z,102163.94
2023-04-03T05:11:00.435Z,102164.06
2023-04-03T05:13:27.479Z,102161.50
2023-04-03T05:15:54.405Z,102171.41
2023-04-03T05:18:21.334Z,102180.53
2023-04-03T05:20:51.543Z,102179.75
2023-04-03T05:23:19.452Z,102188.69
2023-04-03T05:25:48.140Z,102189.75
2023-04-03T05:28:15.056Z,102188.03
2023-04-03T05:30:42.111Z,102190.66
2023-04-03T05:33:09.168Z,102198.66
2023-04-03T05:35:41.963Z,102193.31
2023-04-03T05:38:09.308Z,102199.59
2023-04-03T05:40:36.437Z,102202.25
2023-04-03T05:43:03.452Z,102207.50
2023-04-03T05:45:31.541Z,102212.75
2023-04-03T05:47:58.689Z,102205.47
2023-04-03T05:50:25.922Z,102201.63
2023-04-03T05:52:56.839Z,102205.69
2023-04-03T05:55:23.703Z,102212.50
2023-04-03T05:57:51.400Z,102207.63
2023-04-03T06:00:18.952Z,102210.59
2023-04-03T06:02:46.103Z,102207.66
2023-04-03T06:05:14.301Z,102207.19
2023-04-03T06:07:42.307Z,102213.09
2023-04-03T06:10:10.183Z,102201.91
2023-04-03T06:12:37.275Z,102201.50
2023-04-03T06:15:04.909Z,102209.16
2023-04-03T06:17:32.407Z,102201.09
2023-04-03T06:19:59.630Z,102208.34
2023-04-03T06:22:27.022Z,102202.63
2023-04-03T06:24:54.427Z,102203.19
2023-04-03T06:27:21.338Z,102209.69
2023-04-03T06:29:48.784Z,102204.09
2023-04-03T06:32:17.167Z,102210.66
2023-04-03T06:34:44.079Z,102191.56
2023-04-03T06:37:19.371Z,102191.34
2023-04-03T06:39:46.524Z,102190.59
2023-04-03T06:42:14.438Z,102193.69
2023-04-03T06:44:41.506Z,102193.91
2023-04-03T06:47:12.370Z,102191.56
2023-04-03T06:49:39.586Z,102193.78
2023-04-03T06:52:06.967Z,102185.94
2023-04-03T06:54:34.340Z,102184.97
2023-04-03T06:57:01.524Z,102190.63
2023-04-03T06:59:28.973Z,102188.25
2023-04-03T07:01:55.919Z,102188.44
2023-04-03T07:04:23.229Z,102189.75
2023-04-03T07:06:50.219Z,102180.88
2023-04-03T07:09:17.307Z,102188.13
2023-04-03T07:11:44.422Z,102182.97
2023-04-03T07:14:11.454Z,102175.88
2023-04-03T07:16:40.933Z,102171.91
2023-04-03T07:19:10.110Z,102170.16
2023-04-03T07:21:37.181Z,102174.78
2023-04-03T07:24:04.329Z,102168.72
2023-04-03T07:26:31.828Z,102177.00
2023-04-03T07:28:58.938Z,102177.16
2023-04-03T07:31:26.879Z,102177.75
2023-04-03T07:33:53.908Z,102180.94
2023-04-03T07:36:24.316Z,102177.69
2023-04-03T07:38:51.336Z,102173.56
2023-04-03T07:41:23.740Z,102181.31
2023-04-03T07:43:51.162Z,102177.22
2023-04-03T07:46:18.906Z,102176.22
2023-04-03T07:48:46.623Z,102180.19
2023-04-03T07:51:14.272Z,102174.09
2023-04-03T07:53:41.348Z,102180.63
2023-04-03T07:56:09.589Z,102176.25
2023-04-03T07:58:37.341Z,102177.34
2023-04-03T08:01:04.971Z,102171.25
2023-04-03T08:03:31.991Z,102172.75
2023-04-03T08:06:07.338Z,102170.38
2023-04-03T08:08:34.859Z,102164.34
2023-04-03T08:11:03.762Z,102156.22
2023-04-03T08:13:32.080Z,102163.09
2023-04-03T08:16:00.296Z,102157.53
2023-04-03T08:18:27.926Z,102168.38
2023-04-03T08:20:55.312Z,102167.66
2023-04-03T08:23:22.292Z,102164.25
2023-04-03T08:25:49.367Z,102169.53
2023-04-03T08:28:16.447Z,102170.44
2023-04-03T08:30:43.963Z,102164.91
2023-04-03T08:33:11.741Z,102162.50
2023-04-03T08:35:43.209Z,102172.81
2023-04-03T08:38:11.673Z,102166.06
2023-04-03T08:40:46.713Z,102165.34
2023-04-03T08:43:32.358Z,102159.81
2023-04-03T08:46:04.085Z,102163.88
2023-04-03T08:48:37.987Z,102163.50
2023-04-03T08:51:16.562Z,102158.19
2023-04-03T08:54:00.117Z,102172.72
2023-04-03T08:56:28.180Z,102162.03
2023-04-03T08:59:23.687Z,102174.06
2023-04-03T09:01:52.749Z,102162.09
2023-04-03T09:04:20.346Z,102167.50
2023-04-03T09:07:07.338Z,102161.59
2023-04-03T09:09:42.675Z,102159.66
2023-04-03T09:12:39.631Z,102167.25
2023-04-03T09:15:31.369Z,102158.63
2023-04-03T09:18:19.924Z,102160.06
2023-04-03T09:21:03.801Z,102159.09
2023-04-03T09:23:47.132Z,102149.63
2023-04-03T09:26:27.493Z,102151.22
2023-04-03T09:29:00.362Z,102154.31
2023-04-03T09:31:44.541Z,102150.16
2023-04-03T09:34:24.336Z,102157.16
2023-04-03T09:36:59.764Z,102144.25
2023-04-03T09:39:30.219Z,102142.38
2023-04-03T09:42:22.680Z,102140.84
2023-04-03T09:45:26.070Z,102138.59
2023-04-03T09:48:15.309Z,102145.78
2023-04-03T09:50:52.115Z,102145.69
2023-04-03T09:53:31.666Z,102143.91
2023-04-03T09:55:59.562Z,102138.91
2023-04-03T09:58:46.875Z,102140.84
2023-04-03T10:01:30.989Z,102150.31
2023-04-03T10:04:19.748Z,102146.28
2023-04-03T10:06:52.036Z,102142.88
2023-04-03T10:09:26.694Z,102149.03
2023-04-03T10:12:07.133Z,102149.91
2023-04-03T10:14:58.399Z,102152.38
2023-04-03T10:17:38.533Z,102137.31
2023-04-03T10:20:38.808Z,102139.66
2023-04-03T10:23:47.196Z,102140.28
2023-04-03T10:26:34.304Z,102135.38
2023-04-03T10:29:13.454Z,102140.75
2023-04-03T10:31:59.849Z,102140.88
2023-04-03T10:34:41.355Z,102145.16
2023-04-03T10:37:31.383Z,102138.25
2023-04-03T10:40:25.807Z,102130.22
2023-04-03T10:43:40.978Z,102135.72
2023-04-03T10:46:20.368Z,102130.13
2023-04-03T10:49:16.537Z,102130.75
2023-04-03T10:51:53.009Z,102134.09
2023-04-03T10:54:28.157Z,102123.63
2023-04-03T10:57:11.881Z,102120.25
2023-04-03T11:00:05.605Z,102115.19
2023-04-03T11:03:10.991Z,102116.25
2023-04-03T11:05:52.344Z,102113.25
2023-04-03T11:08:39.413Z,102105.81
2023-04-03T11:11:22.567Z,102107.72
2023-04-03T11:14:04.729Z,102116.69
2023-04-03T11:16:51.074Z,102106.47
2023-04-03T11:19:44.975Z,102111.34
2023-04-03T11:22:25.895Z,102114.19
2023-04-03T11:25:04.266Z,102099.06
2023-04-03T11:27:45.020Z,102110.16
2023-04-03T11:30:20.988Z,102104.88
2023-04-03T11:33:18.761Z,102105.19
2023-04-03T11:35:49.762Z,102094.28
2023-04-03T11:38:27.358Z,102094.44
2023-04-03T11:40:56.737Z,102093.75
2023-04-03T11:43:32.682Z,102096.69
2023-04-03T11:46:07.606Z,102096.84
2023-04-03T11:48:37.889Z,102087.44
2023-04-03T11:51:13.674Z,102085.94
2023-04-03T11:53:42.342Z,102083.88
2023-04-03T11:56:21.868Z,102079.34
2023-04-03T11:59:11.666Z,102086.13
2023-04-03T12:01:55.549Z,102074.28
2023-04-03T12:04:26.643Z,102074.44
2023-04-03T12:07:13.860Z,102071.84
2023-04-03T12:09:43.872Z,102066.13
2023-04-03T12:12:32.470Z,102063.84
2023-04-03T12:15:46.454Z,102060.16
2023-04-03T12:19:01.704Z,102044.44
2023-04-03T12:21:31.455Z,102048.44
2023-04-03T12:24:10.983Z,102041.31
2023-04-03T12:26:49.212Z,102042.19
2023-04-03T12:29:34.633Z,102036.91
2023-04-03T12:32:04.965Z,102036.22
2023-04-03T12:35:02.957Z,102025.94
2023-04-03T12:38:31.149Z,102031.06
2023-04-03T12:41:19.724Z,102017.22
2023-04-03T12:44:46.650Z,102014.50
2023-04-03T12:47:43.909Z,102014.63
2023-04-03T12:50:25.767Z,102011.91
2023-04-03T12:53:01.132Z,102015.63
2023-04-03T12:55:28.145Z,102009.91
2023-04-03T12:57:55.081Z,102008.03
2023-04-03T13:00:28.602Z,102002.63
2023-04-03T13:02:55.963Z,101998.06
2023-04-03T13:05:24.017Z,101995.03
2023-04-03T13:08:00.188Z,101993.19
2023-04-03T13:10:27.415Z,101995.19
2023-04-03T13:12:59.037Z,101996.88
2023-04-03T13:15:32.053Z,101991.75
2023-04-03T13:17:59.383Z,101989.59
2023-04-03T13:20:33.268Z,101977.84
2023-04-03T13:23:07.818Z,101976.84
2023-04-03T13:25:38.526Z,101973.84
2023-04-03T13:28:13.986Z,101965.53
2023-04-03T13:30:51.506Z,101960.97
2023-04-03T13:33:27.218Z,101950.97
2023-04-03T13:36:05.954Z,101954.41
2023-04-03T13:38:34.927Z,101951.25
2023-04-03T13:41:38.863Z,101950.69
2023-04-03T13:44:24.511Z,101945.97
2023-04-03T13:47:02.873Z,101932.19
2023-04-03T13:49:43.748Z,101942.66
2023-04-03T13:52:30.519Z,101941.66
2023-04-03T13:55:05.853Z,101934.91
2023-04-03T13:57:35.056Z,101933.50
2023-04-03T14:00:22.898Z,101923.91
2023-04-03T14:02:49.954Z,101916.00
2023-04-03T14:05:19.387Z,101911.28
2023-04-03T14:07:46.529Z,101915.97
2023-04-03T14:10:13.474Z,101910.25
2023-04-03T14:12:41.906Z,101911.66
2023-04-03T14:15:25.491Z,101907.47
2023-04-03T14:17:53.215Z,101909.91
2023-04-03T14:20:24.966Z,101914.47
2023-04-03T14:22:53.219Z,101909.72
2023-04-03T14:25:21.738Z,101907.56
2023-04-03T14:27:52.025Z,101906.50
2023-04-03T14:30:27.986Z,101895.28
2023-04-03T14:32:55.851Z,101894.69
2023-04-03T14:35:24.176Z,101897.09
2023-04-03T14:37:54.450Z,101892.50
2023-04-03T14:40:28.409Z,101883.22
2023-04-03T14:42:56.690Z,101887.78
2023-04-03T14:45:24.925Z,101886.06
2023-04-03T14:47:55.922Z,101880.72
2023-04-03T14:50:26.859Z,101877.16
2023-04-03T14:52:58.920Z,101877.44
2023-04-03T14:55:27.535Z,101877.78
2023-04-03T14:57:55.631Z,101873.19
2023-04-03T15:00:24.404Z,101870.31
2023-04-03T15:02:52.120Z,101871.56
2023-04-03T15:05:20.833Z,101878.00
2023-04-03T15:07:57.621Z,101874.91
2023-04-03T15:10:30.588Z,101867.19
2023-04-03T15:12:58.808Z,101868.91
2023-04-03T15:15:27.626Z,101868.03
2023-04-03T15:17:57.528Z,101859.44
2023-04-03T15:20:27.676Z,101856.41
2023-04-03T15:22:57.374Z,101850.81
2023-04-03T15:25:26.567Z,101850.66
2023-04-03T15:27:57.308Z,101847.94
2023-04-03T15:30:24.649Z,101850.50
2023-04-03T15:32:52.256Z,101849.97
2023-04-03T15:35:19.533Z,101848.72
2023-04-03T15:37:46.620Z,101846.47
2023-04-03T15:40:14.593Z,101849.50
2023-04-03T15:42:41.667Z,101845.53
2023-04-03T15:45:09.584Z,101848.38
2023-04-03T15:47:36.960Z,101847.53
2023-04-03T15:50:07.357Z,101846.53
2023-04-03T15:52:34.680Z,101848.94
2023-04-03T15:55:02.024Z,101842.31
2023-04-03T15:59:56.458Z,101840.00
2023-04-03T16:02:23.965Z,101840.84
2023-04-03T16:04:51.264Z,101836.59
2023-04-03T16:07:18.328Z,101844.91
2023-04-03T16:09:45.337Z,101841.63
2023-04-03T16:12:12.279Z,101847.06
2023-04-03T16:14:39.184Z,101849.09
2023-04-03T16:17:06.209Z,101837.13
2023-04-03T16:19:33.255Z,101836.41
2023-04-03T16:22:00.340Z,101841.16
2023-04-03T16:24:27.516Z,101838.75
2023-04-03T16:26:54.646Z,101839.91
2023-04-03T16:29:21.582Z,101847.19
2023-04-03T16:31:48.876Z,101846.22
2023-04-03T16:34:17.142Z,101843.09
2023-04-03T16:36:44.154Z,101840.94
2023-04-03T16:39:11.401Z,101837.81
2023-04-03T16:41:39.098Z,101839.84
2023-04-03T16:44:08.415Z,101832.84
2023-04-03T16:46:35.649Z,101832.28
2023-04-03T16:49:02.807Z,101830.03
2023-04-03T16:51:29.947Z,101818.47
2023-04-03T16:53:57.272Z,101821.31
2023-04-03T16:56:25.085Z,101824.19
2023-04-03T16:58:52.103Z,101827.38
2023-04-03T17:01:21.411Z,101817.50
2023-04-03T17:03:49.164Z,101824.94
2023-04-03T17:06:22.272Z,101812.66
2023-04-03T17:08:51.199Z,101823.25
2023-04-03T17:11:19.389Z,101823.53
2023-04-03T17:13:46.276Z,101827.56
2023-04-03T17:16:15.995Z,101818.00
2023-04-03T17:18:43.990Z,101813.88
2023-04-03T17:21:11.019Z,101814.47
2023-04-03T17:23:39.598Z,101813.47
2023-04-03T17:26:06.603Z,101803.91
2023-04-03T17:28:33.557Z,101809.34
2023-04-03T17:31:03.432Z,101805.81
2023-04-03T17:33:31.438Z,101809.69
2023-04-03T17:36:04.571Z,101800.81
2023-04-03T17:38:34.194Z,101813.84
2023-04-03T17:41:04.862Z,101809.00
2023-04-03T17:43:32.089Z,101809.88
2023-04-03T17:46:07.212Z,101800.16
2023-04-03T17:48:35.160Z,101799.91
2023-04-03T17:51:15.748Z,101800.31
2023-04-03T17:53:44.878Z,101798.78
2023-04-03T17:56:17.036Z,101805.06
2023-04-03T17:58:45.006Z,101792.66
2023-04-03T18:01:23.561Z,101786.97
2023-04-03T18:03:55.225Z,101796.69
2023-04-03T18:06:27.582Z,101799.56
2023-04-03T18:09:08.474Z,101796.09
2023-04-03T18:11:35.687Z,101799.41
2023-04-03T18:14:05.108Z,101797.50
2023-04-03T18:16:32.365Z,101795.94
2023-04-03T18:19:17.713Z,101801.50
2023-04-03T18:21:48.074Z,101798.66
2023-04-03T18:24:19.048Z,101803.63
2023-04-03T18:26:51.722Z,101805.19
2023-04-03T18:29:19.093Z,101807.19
2023-04-03T18:31:51.378Z,101818.56
2023-04-03T18:34:18.873Z,101814.72
2023-04-03T18:36:46.847Z,101807.16
2023-04-03T18:39:14.352Z,101818.81
2023-04-03T18:41:42.149Z,101813.66
2023-04-03T18:44:14.099Z,101815.94
2023-04-03T18:46:41.263Z,101818.19
2023-04-03T18:49:09.808Z,101811.63
2023-04-03T18:51:39.503Z,101814.88
2023-04-03T18:54:10.097Z,101815.56
2023-04-03T18:56:38.105Z,101813.41
2023-04-03T18:59:05.722Z,101809.78
2023-04-03T19:01:34.318Z,101814.00
2023-04-03T19:04:01.425Z,101823.81
2023-04-03T19:06:28.604Z,101827.31
2023-04-03T19:08:55.810Z,101826.13
2023-04-03T19:11:23.435Z,101830.47
2023-04-03T19:16:20.315Z,101819.16
2023-04-03T19:18:47.257Z,101830.56
2023-04-03T19:21:15.991Z,101832.97
2023-04-03T19:23:45.159Z,101834.66
2023-04-03T19:26:13.839Z,101832.50
2023-04-03T19:28:42.942Z,101840.41
2023-04-03T19:31:21.498Z,101833.06
2023-04-03T19:33:49.023Z,101831.84
2023-04-03T19:36:17.627Z,101836.75
2023-04-03T19:38:45.189Z,101839.38
2023-04-03T19:41:19.997Z,101840.72
2023-04-03T19:43:47.340Z,101843.94
2023-04-03T19:46:14.537Z,101847.16
2023-04-03T19:48:41.616Z,101852.03
2023-04-03T19:51:09.058Z,101847.16
2023-04-03T19:53:36.202Z,101846.78
2023-04-03T19:56:03.742Z,101854.25
2023-04-03T19:58:31.008Z,101852.91
2023-04-03T20:00:59.203Z,101857.56
2023-04-03T20:03:27.456Z,101853.41
2023-04-03T20:05:55.627Z,101850.97
2023-04-03T20:08:23.344Z,101848.50
2023-04-03T20:10:50.344Z,101845.94
2023-04-03T20:13:17.440Z,101844.22
2023-04-03T20:15:45.088Z,101851.56
2023-04-03T20:18:20.044Z,101839.19
2023-04-03T20:21:02.381Z,101851.19
2023-04-03T20:23:30.884Z,101852.31
2023-04-03T20:26:09.576Z,101862.31
2023-04-03T20:28:40.220Z,101856.56
2023-04-03T20:31:09.421Z,101856.94
2023-04-03T20:33:37.483Z,101865.25
2023-04-03T20:36:04.807Z,101865.59
2023-04-03T20:38:31.707Z,101866.94
2023-04-03T20:41:00.433Z,101869.16
2023-04-03T20:43:28.623Z,101867.69
2023-04-03T20:45:56.225Z,101871.56
2023-04-03T20:48:23.875Z,101873.53
2023-04-03T20:50:51.271Z,101880.97
2023-04-03T20:53:19.380Z,101875.09
2023-04-03T20:56:00.180Z,101873.00
2023-04-03T20:58:35.926Z,101874.94
2023-04-03T21:01:03.102Z,101872.47
2023-04-03T21:03:30.862Z,101871.00
2023-04-03T21:06:00.726Z,101874.91
2023-04-03T21:09:24.258Z,101879.03
2023-04-03T21:12:47.229Z,101881.09
2023-04-03T21:16:00.084Z,101879.94
2023-04-03T21:18:58.163Z,101879.66
2023-04-03T21:21:26.528Z,101889.78
2023-04-03T21:23:57.055Z,101885.72
2023-04-03T21:26:26.613Z,101885.28
2023-04-03T21:28:54.733Z,101885.53
2023-04-03T21:31:22.835Z,101892.19
2023-04-03T21:33:50.878Z,101888.97
2023-04-03T21:36:17.880Z,101897.41
2023-04-03T21:38:46.257Z,101897.59
2023-04-03T21:41:13.294Z,101899.91
2023-04-03T21:43:40.331Z,101900.09
2023-04-03T21:46:07.373Z,101901.31
2023-04-03T21:48:36.737Z,101900.97
2023-04-03T21:51:07.183Z,101912.06
2023-04-03T21:53:35.327Z,101908.75
2023-04-03T21:56:02.868Z,101909.94
2023-04-03T21:58:34.001Z,101908.09
2023-04-03T22:01:12.577Z,101905.75
2023-04-03T22:03:44.092Z,101903.25
2023-04-03T22:06:13.618Z,101903.38
2023-04-03T22:08:41.617Z,101914.22
2023-04-03T22:11:17.683Z,101910.78
2023-04-03T22:13:45.765Z,101914.34
2023-04-03T22:16:13.149Z,101915.94
2023-04-03T22:18:40.417Z,101913.47
2023-04-03T22:21:10.596Z,101906.69
2023-04-03T22:23:38.127Z,101911.13
2023-04-03T22:26:09.879Z,101903.91
2023-04-03T22:28:43.161Z,101909.06
2023-04-03T22:31:14.528Z,101911.53
2023-04-03T22:33:43.343Z,101913.72
2023-04-03T22:36:12.876Z,101909.28
2023-04-03T22:38:44.527Z,101913.16
2023-04-03T22:41:14.578Z,101907.69
2023-04-03T22:43:41.915Z,101911.22
2023-04-03T22:46:10.112Z,101915.84
2023-04-03T22:48:48.732Z,101914.22
2023-04-03T22:51:15.949Z,101928.66
2023-04-03T22:53:43.218Z,101929.72
2023-04-03T22:56:11.414Z,101930.78
2023-04-03T22:58:39.295Z,101924.66
2023-04-03T23:01:11.303Z,101940.03
2023-04-03T23:03:40.574Z,101941.03
2023-04-03T23:06:09.635Z,101944.66
2023-04-03T23:08:41.144Z,101940.66
2023-04-03T23:11:09.906Z,101937.97
2023-04-03T23:13:37.526Z,101941.75
2023-04-03T23:16:05.575Z,101943.88
2023-04-03T23:18:33.207Z,101942.19
2023-04-03T23:21:01.692Z,101947.84
2023-04-03T23:23:28.932Z,101951.31
2023-04-03T23:25:59.061Z,101946.16
2023-04-03T23:28:27.487Z,101940.88
2023-04-03T23:31:03.130Z,101938.50
2023-04-03T23:33:32.113Z,101939.47
2023-04-03T23:36:01.455Z,101942.34
2023-04-03T23:38:28.597Z,101931.81
2023-04-03T23:40:56.031Z,101947.16
2023-04-03T23:43:22.926Z,101946.53
2023-04-03T23:45:50.044Z,101949.63
2023-04-03T23:48:17.634Z,101956.06
2023-04-03T23:50:44.641Z,101952.81
2023-04-03T23:53:13.755Z,101951.88
2023-04-03T23:55:42.154Z,101951.22
2023-04-03T23:58:09.314Z,101950.97
